createdAt,value
2018-09-13T00:00:47.010Z,63.84
2018-09-13T00:03:15.686Z,64.29
2018-09-13T00:05:44.143Z,64.98
2018-09-13T00:08:11.037Z,65.16
2018-09-13T00:10:37.866Z,65.12
2018-09-13T00:13:05.235Z,65.34
2018-09-13T00:15:32.368Z,66.31
2018-09-13T00:18:00.024Z,65.91
2018-09-13T00:20:29.050Z,65.27
2018-09-13T00:22:55.676Z,65.38
2018-09-13T00:25:23.632Z,64.49
2018-09-13T00:27:50.350Z,66.09
2018-09-13T00:30:17.077Z,67.32
2018-09-13T00:35:19.759Z,67.78
2018-09-13T00:37:47.606Z,66.35
2018-09-13T00:40:15.371Z,67.00
2018-09-13T00:42:42.494Z,65.68
2018-09-13T00:45:14.787Z,66.85
2018-09-13T00:47:44.766Z,65.95
2018-09-13T00:50:11.457Z,66.15
2018-09-13T00:52:38.899Z,66.35
2018-09-13T00:55:05.890Z,65.29
2018-09-13T00:57:35.631Z,66.22
2018-09-13T01:00:02.398Z,66.55
2018-09-13T01:02:29.791Z,67.50
2018-09-13T01:04:59.099Z,65.67
2018-09-13T01:07:27.564Z,65.53
2018-09-13T01:09:54.559Z,65.74
2018-09-13T01:12:22.796Z,65.33
2018-09-13T01:14:51.144Z,65.67
2018-09-13T01:17:19.340Z,65.11
2018-09-13T01:19:47.009Z,64.60
2018-09-13T01:22:13.854Z,65.71
2018-09-13T01:24:40.891Z,65.87
2018-09-13T01:27:10.165Z,66.12
2018-09-13T01:29:40.154Z,65.58
2018-09-13T01:34:40.147Z,65.27
2018-09-13T01:37:08.022Z,65.16
2018-09-13T01:39:34.980Z,65.73
2018-09-13T01:42:02.569Z,66.55
2018-09-13T01:44:37.429Z,66.10
2018-09-13T01:47:05.992Z,66.42
2018-09-13T01:49:35.554Z,66.69
2018-09-13T01:52:03.234Z,67.91
2018-09-13T01:54:31.660Z,65.81
2018-09-13T01:56:58.928Z,65.17
2018-09-13T01:59:25.738Z,65.49
2018-09-13T02:06:58.499Z,66.25
2018-09-13T02:09:25.010Z,65.37
2018-09-13T02:14:31.326Z,66.05
2018-09-13T02:17:00.156Z,65.72
2018-09-13T02:19:28.069Z,65.40
2018-09-13T02:21:55.382Z,65.62
2018-09-13T02:24:23.158Z,65.64
2018-09-13T02:26:53.538Z,65.90
2018-09-13T02:29:22.503Z,65.03
2018-09-13T02:31:49.206Z,65.83
2018-09-13T02:34:17.039Z,65.92
2018-09-13T02:36:47.647Z,66.22
2018-09-13T02:39:14.304Z,66.02
2018-09-13T02:41:42.885Z,65.28
2018-09-13T02:44:09.979Z,65.40
2018-09-13T02:46:36.660Z,66.95
2018-09-13T02:49:04.732Z,66.33
2018-09-13T02:51:31.531Z,65.20
2018-09-13T02:53:59.361Z,64.45
2018-09-13T02:56:27.221Z,65.21
2018-09-13T02:58:54.399Z,64.31
2018-09-13T03:01:21.593Z,64.73
2018-09-13T03:03:49.579Z,64.62
2018-09-13T03:06:17.527Z,64.87
2018-09-13T03:08:45.454Z,65.37
2018-09-13T03:11:12.883Z,64.68
2018-09-13T03:13:39.678Z,64.72
2018-09-13T03:16:06.699Z,64.47
2018-09-13T03:18:35.766Z,65.19
2018-09-13T03:23:39.546Z,64.47
2018-09-13T03:26:07.991Z,65.17
2018-09-13T03:28:35.516Z,64.65
2018-09-13T03:31:03.832Z,65.25
2018-09-13T03:33:30.961Z,65.56
2018-09-13T03:35:59.463Z,65.21
2018-09-13T03:38:26.274Z,64.71
2018-09-13T03:40:53.833Z,65.18
2018-09-13T03:43:20.436Z,64.78
2018-09-13T03:45:48.270Z,63.70
2018-09-13T03:48:18.623Z,64.44
2018-09-13T03:50:47.497Z,64.58
2018-09-13T03:53:16.843Z,65.37
2018-09-13T03:55:45.892Z,66.07
2018-09-13T03:58:14.178Z,66.65
2018-09-13T04:00:42.420Z,66.40
2018-09-13T04:05:43.998Z,65.48
2018-09-13T04:08:13.456Z,65.07
2018-09-13T04:10:41.766Z,65.37
2018-09-13T04:13:12.381Z,65.13
2018-09-13T04:15:41.198Z,65.11
2018-09-13T04:18:08.263Z,65.19
2018-09-13T04:20:36.352Z,64.60
2018-09-13T04:23:03.527Z,64.79
2018-09-13T04:25:31.790Z,64.35
2018-09-13T04:28:00.829Z,64.57
2018-09-13T04:30:30.059Z,64.72
2018-09-13T04:32:59.635Z,64.22
2018-09-13T04:35:30.396Z,64.73
2018-09-13T04:38:01.079Z,63.63
2018-09-13T04:40:27.819Z,64.03
2018-09-13T04:42:58.569Z,65.24
2018-09-13T04:45:28.337Z,65.84
2018-09-13T04:47:58.226Z,65.22
2018-09-13T04:50:24.818Z,65.11
2018-09-13T04:52:53.478Z,64.56
2018-09-13T04:57:54.595Z,65.17
2018-09-13T05:00:22.520Z,64.72
2018-09-13T05:02:51.933Z,66.05
2018-09-13T05:07:52.629Z,64.91
2018-09-13T05:10:20.197Z,65.07
2018-09-13T05:12:50.362Z,64.83
2018-09-13T05:17:52.010Z,64.73
2018-09-13T05:20:19.892Z,63.87
2018-09-13T05:22:50.465Z,64.82
2018-09-13T05:25:23.163Z,63.98
2018-09-13T05:27:50.519Z,64.48
2018-09-13T05:30:19.330Z,64.57
2018-09-13T05:32:47.034Z,65.73
2018-09-13T05:35:16.073Z,65.39
2018-09-13T05:37:44.371Z,65.87
2018-09-13T05:40:13.171Z,65.11
2018-09-13T05:42:41.552Z,64.91
2018-09-13T05:45:12.790Z,64.20
2018-09-13T05:47:46.097Z,64.75
2018-09-13T05:52:55.698Z,64.40
2018-09-13T05:58:01.640Z,64.25
2018-09-13T06:00:32.181Z,63.82
2018-09-13T06:02:59.728Z,64.00
2018-09-13T06:05:28.374Z,63.80
2018-09-13T06:07:58.946Z,64.74
2018-09-13T06:10:33.969Z,64.98
2018-09-13T06:15:36.955Z,65.39
2018-09-13T06:18:07.294Z,64.75
2018-09-13T06:20:39.260Z,64.24
2018-09-13T06:23:07.334Z,63.97
2018-09-13T06:25:36.403Z,63.61
2018-09-13T06:28:04.231Z,62.04
2018-09-13T06:30:33.121Z,62.07
2018-09-13T06:33:03.833Z,63.61
2018-09-13T06:35:32.591Z,61.38
2018-09-13T06:38:03.186Z,61.76
2018-09-13T06:43:05.414Z,60.27
2018-09-13T06:45:34.446Z,60.81
2018-09-13T06:48:03.276Z,60.34
2018-09-13T06:50:33.853Z,56.61
2018-09-13T06:55:36.468Z,56.56
2018-09-13T06:58:05.224Z,56.02
2018-09-13T07:00:38.021Z,55.68
2018-09-13T07:03:09.771Z,54.76
2018-09-13T07:05:37.128Z,53.81
2018-09-13T07:08:09.484Z,52.13
2018-09-13T07:10:38.685Z,53.17
2018-09-13T07:13:06.163Z,52.74
2018-09-13T07:18:06.187Z,52.62
2018-09-13T07:20:34.091Z,51.49
2018-09-13T07:23:00.916Z,50.75
2018-09-13T07:25:29.495Z,51.56
2018-09-13T07:27:59.501Z,51.71
2018-09-13T07:35:32.011Z,49.65
2018-09-13T07:37:59.516Z,50.55
2018-09-13T07:40:28.087Z,50.74
2018-09-13T07:42:57.551Z,50.43
2018-09-13T07:45:30.382Z,50.38
2018-09-13T07:48:00.476Z,49.75
2018-09-13T07:53:07.214Z,49.71
2018-09-13T07:55:37.081Z,49.86
2018-09-13T07:58:10.117Z,50.71
2018-09-13T08:00:38.879Z,50.03
2018-09-13T08:03:09.899Z,49.57
2018-09-13T08:05:38.480Z,48.91
2018-09-13T08:08:08.645Z,49.41
2018-09-13T08:10:39.118Z,47.36
2018-09-13T08:13:10.803Z,48.43
2018-09-13T08:15:39.190Z,48.09
2018-09-13T08:18:09.836Z,48.05
2018-09-13T08:20:43.886Z,47.80
2018-09-13T08:23:16.332Z,47.95
2018-09-13T08:28:24.386Z,46.73
2018-09-13T08:30:56.974Z,45.54
2018-09-13T08:35:59.861Z,44.12
2018-09-13T08:38:30.105Z,44.01
2018-09-13T08:40:59.541Z,43.33
2018-09-13T08:43:26.444Z,44.24
2018-09-13T08:45:53.549Z,43.62
2018-09-13T08:48:20.974Z,43.22
2018-09-13T08:50:54.808Z,42.93
2018-09-13T08:58:30.844Z,43.02
2018-09-13T09:01:01.306Z,42.88
2018-09-13T09:03:29.227Z,42.22
2018-09-13T09:05:59.912Z,42.83
2018-09-13T09:08:34.433Z,43.53
2018-09-13T09:11:03.428Z,42.79
2018-09-13T09:16:03.951Z,40.15
2018-09-13T09:18:36.372Z,40.08
2018-09-13T09:23:42.817Z,39.14
2018-09-13T09:28:48.925Z,39.18
2018-09-13T09:31:20.978Z,38.90
2018-09-13T09:33:48.862Z,38.26
2018-09-13T09:36:17.430Z,38.66
2018-09-13T09:38:47.365Z,39.88
2018-09-13T09:41:23.071Z,39.76
2018-09-13T09:46:26.136Z,38.34
2018-09-13T09:48:54.846Z,38.08
2018-09-13T09:59:12.530Z,37.15
2018-09-13T10:04:19.468Z,36.94
2018-09-13T10:06:51.135Z,37.89
2018-09-13T10:09:20.658Z,38.11
2018-09-13T10:11:51.578Z,37.77
2018-09-13T10:14:19.038Z,35.43
2018-09-13T10:16:46.025Z,34.88
2018-09-13T10:21:52.513Z,36.83
2018-09-13T10:32:12.534Z,37.27
2018-09-13T10:34:42.241Z,34.97
2018-09-13T10:37:12.043Z,34.01
2018-09-13T10:39:47.262Z,33.70
2018-09-13T10:44:49.417Z,34.37
2018-09-13T10:47:20.224Z,31.89
2018-09-13T10:49:49.730Z,30.99
2018-09-13T10:52:16.806Z,31.85
2018-09-13T10:54:45.507Z,32.46
2018-09-13T11:05:10.795Z,32.73
2018-09-13T11:07:40.245Z,32.93
2018-09-13T11:10:08.809Z,32.32
2018-09-13T11:12:38.245Z,32.49
2018-09-13T11:15:09.142Z,31.39
2018-09-13T11:22:42.660Z,32.35
2018-09-13T11:25:10.314Z,32.47
2018-09-13T11:32:48.805Z,31.96
2018-09-13T11:35:16.192Z,30.75
2018-09-13T11:37:43.940Z,32.10
2018-09-13T11:43:06.353Z,31.58
2018-09-13T11:48:16.956Z,32.83
2018-09-13T11:50:45.242Z,31.69
2018-09-13T11:55:52.092Z,32.93
2018-09-13T11:58:28.085Z,31.71
2018-09-13T12:03:48.693Z,30.33
2018-09-13T12:06:15.651Z,29.02
2018-09-13T12:08:45.162Z,30.32
2018-09-13T12:11:12.750Z,30.71
2018-09-13T12:13:41.527Z,31.12
2018-09-13T12:18:45.166Z,30.06
2018-09-13T12:21:20.010Z,29.09
2018-09-13T12:26:33.623Z,31.40
2018-09-13T12:34:23.040Z,28.36
2018-09-13T12:52:33.110Z,31.77
2018-09-13T12:55:01.586Z,32.87
2018-09-13T13:03:01.055Z,33.00
2018-09-13T13:13:33.344Z,33.26
2018-09-13T13:16:04.696Z,33.89
2018-09-13T13:18:36.173Z,32.68
2018-09-13T13:23:50.306Z,34.44
2018-09-13T13:26:18.386Z,33.17
2018-09-13T13:28:46.428Z,33.29
2018-09-13T13:33:50.345Z,33.08
2018-09-13T13:36:18.571Z,34.74
2018-09-13T13:38:48.989Z,35.14
2018-09-13T13:44:00.643Z,34.25
2018-09-13T13:46:30.606Z,34.26
2018-09-13T13:54:17.513Z,35.38
2018-09-13T13:56:46.552Z,36.37
2018-09-13T14:02:17.700Z,36.56
2018-09-13T14:04:47.004Z,35.95
2018-09-13T14:12:27.145Z,34.62
2018-09-13T14:14:56.921Z,34.20
2018-09-13T14:20:15.704Z,35.42
2018-09-13T14:22:44.844Z,35.00
2018-09-13T14:32:56.583Z,34.72
2018-09-13T14:35:25.416Z,34.79
2018-09-13T14:40:27.869Z,34.44
2018-09-13T14:45:35.961Z,33.53
2018-09-13T14:48:04.355Z,36.74
2018-09-13T14:50:33.061Z,36.28
2018-09-13T14:53:02.344Z,36.74
2018-09-13T15:03:23.700Z,35.96
2018-09-13T15:05:52.857Z,37.42
2018-09-13T15:10:51.096Z,37.50
2018-09-13T15:18:40.972Z,37.57
2018-09-13T15:21:13.841Z,36.88
2018-09-13T15:23:42.310Z,36.58
2018-09-13T15:31:43.281Z,38.53
2018-09-13T15:34:11.232Z,38.63
2018-09-13T15:36:43.854Z,39.27
2018-09-13T15:41:52.197Z,38.90
2018-09-13T15:46:57.404Z,39.57
2018-09-13T15:57:25.060Z,39.69
2018-09-13T15:59:52.893Z,40.64
2018-09-13T16:02:19.747Z,38.30
2018-09-13T16:10:01.772Z,39.62
2018-09-13T16:17:46.383Z,40.94
2018-09-13T16:22:48.715Z,41.01
2018-09-13T16:25:22.878Z,41.05
2018-09-13T16:30:28.119Z,41.87
2018-09-13T16:40:35.648Z,42.53
2018-09-13T16:43:02.309Z,42.75
2018-09-13T16:45:31.840Z,44.30
2018-09-13T16:50:32.980Z,45.38
2018-09-13T16:53:03.215Z,45.05
2018-09-13T17:00:33.146Z,45.70
2018-09-13T17:03:02.663Z,45.91
2018-09-13T17:05:33.747Z,45.98
2018-09-13T17:08:04.555Z,46.80
2018-09-13T17:10:35.183Z,46.79
2018-09-13T17:13:05.763Z,47.61
2018-09-13T17:15:36.082Z,47.51
2018-09-13T17:18:06.273Z,47.80
2018-09-13T17:20:38.216Z,46.99
2018-09-13T17:23:07.044Z,48.45
2018-09-13T17:25:35.201Z,48.27
2018-09-13T17:28:03.174Z,50.00
2018-09-13T17:33:06.480Z,50.07
2018-09-13T17:35:37.198Z,50.97
2018-09-13T17:38:05.757Z,52.10
2018-09-13T17:40:33.897Z,51.86
2018-09-13T17:45:41.803Z,52.27
2018-09-13T17:48:09.284Z,52.32
2018-09-13T17:50:37.848Z,52.20
2018-09-13T17:53:08.156Z,51.94
2018-09-13T17:58:09.444Z,53.25
2018-09-13T18:03:15.070Z,53.51
2018-09-13T18:05:43.456Z,54.11
2018-09-13T18:08:17.543Z,53.22
2018-09-13T18:10:45.798Z,52.94
2018-09-13T18:13:14.222Z,53.51
2018-09-13T18:15:42.273Z,54.01
2018-09-13T18:18:09.535Z,53.83
2018-09-13T18:20:40.345Z,53.32
2018-09-13T18:23:11.894Z,53.86
2018-09-13T18:25:40.317Z,53.85
2018-09-13T18:30:43.437Z,54.12
2018-09-13T18:38:27.059Z,54.22
2018-09-13T18:40:56.942Z,54.40
2018-09-13T18:43:25.028Z,55.13
2018-09-13T18:45:57.034Z,54.43
2018-09-13T18:48:33.209Z,55.55
2018-09-13T18:51:00.786Z,55.56
2018-09-13T18:53:29.220Z,55.27
2018-09-13T18:58:34.020Z,56.00
2018-09-13T19:03:37.399Z,57.07
2018-09-13T19:06:05.010Z,56.75
2018-09-13T19:08:34.348Z,55.95
2018-09-13T19:11:03.376Z,56.97
2018-09-13T19:13:37.298Z,56.59
2018-09-13T19:16:08.262Z,57.27
2018-09-13T19:18:44.341Z,57.10
2018-09-13T19:21:12.479Z,57.57
2018-09-13T19:26:13.542Z,58.37
2018-09-13T19:28:46.352Z,58.64
2018-09-13T19:31:14.575Z,58.42
2018-09-13T19:33:46.975Z,58.43
2018-09-13T19:36:14.888Z,59.28
2018-09-13T19:38:41.499Z,58.92
2018-09-13T19:41:10.909Z,58.68
2018-09-13T19:43:37.626Z,58.83
2018-09-13T19:46:06.778Z,58.80
2018-09-13T19:48:39.523Z,58.29
2018-09-13T19:53:45.752Z,57.83
2018-09-13T19:56:21.376Z,58.33
2018-09-13T19:58:49.553Z,57.79
2018-09-13T20:01:23.004Z,58.64
2018-09-13T20:03:52.904Z,58.54
2018-09-13T20:06:19.778Z,58.96
2018-09-13T20:08:47.035Z,60.42
2018-09-13T20:11:15.333Z,60.34
2018-09-13T20:16:22.581Z,59.67
2018-09-13T20:18:53.542Z,60.67
2018-09-13T20:21:23.240Z,61.34
2018-09-13T20:23:55.794Z,61.20
2018-09-13T20:26:23.649Z,60.83
2018-09-13T20:28:52.373Z,60.18
2018-09-13T20:31:21.760Z,60.96
2018-09-13T20:33:50.503Z,60.10
2018-09-13T20:36:25.231Z,59.97
2018-09-13T20:41:25.297Z,60.36
2018-09-13T20:43:55.952Z,60.62
2018-09-13T20:46:23.935Z,60.92
2018-09-13T20:51:37.032Z,60.92
2018-09-13T20:54:07.749Z,61.24
2018-09-13T20:56:37.096Z,61.12
2018-09-13T20:59:05.938Z,60.87
2018-09-13T21:01:35.156Z,60.66
2018-09-13T21:04:02.371Z,60.65
2018-09-13T21:06:29.804Z,61.10
2018-09-13T21:08:59.929Z,60.87
2018-09-13T21:11:31.708Z,60.52
2018-09-13T21:16:31.538Z,61.06
2018-09-13T21:19:03.498Z,61.17
2018-09-13T21:21:32.269Z,61.82
2018-09-13T21:24:03.068Z,61.57
2018-09-13T21:29:08.052Z,62.59
2018-09-13T21:31:37.596Z,62.77
2018-09-13T21:34:07.652Z,62.67
2018-09-13T21:36:35.055Z,61.93
2018-09-13T21:39:03.708Z,61.62
2018-09-13T21:41:35.314Z,61.30
2018-09-13T21:44:04.582Z,62.21
2018-09-13T21:46:34.814Z,61.87
2018-09-13T21:54:11.631Z,62.54
2018-09-13T21:56:40.141Z,62.39
2018-09-13T21:59:09.009Z,63.26
2018-09-13T22:01:37.313Z,62.55
2018-09-13T22:04:07.283Z,62.87
2018-09-13T22:06:41.085Z,63.10
2018-09-13T22:09:13.780Z,62.29
2018-09-13T22:11:44.118Z,63.02
2018-09-13T22:14:15.900Z,63.54
2018-09-13T22:16:44.692Z,63.16
2018-09-13T22:19:14.222Z,61.76
2018-09-13T22:21:43.818Z,61.81
2018-09-13T22:24:11.288Z,62.81
2018-09-13T22:26:37.873Z,62.97
2018-09-13T22:29:09.476Z,63.33
2018-09-13T22:31:38.175Z,62.77
2018-09-13T22:34:07.910Z,63.27
2018-09-13T22:39:21.715Z,62.92
2018-09-13T22:46:54.256Z,63.45
2018-09-13T22:49:23.245Z,63.91
2018-09-13T22:51:51.250Z,63.14
2018-09-13T22:54:18.921Z,62.61
2018-09-13T22:56:54.117Z,63.04
2018-09-13T22:59:23.785Z,63.27
2018-09-13T23:01:52.324Z,63.69
2018-09-13T23:04:20.784Z,63.08
2018-09-13T23:06:50.533Z,62.84
2018-09-13T23:09:21.197Z,63.62
2018-09-13T23:11:51.245Z,63.98
2018-09-13T23:14:22.369Z,63.86
2018-09-13T23:16:52.819Z,64.41
2018-09-13T23:19:20.691Z,63.44
2018-09-13T23:21:49.862Z,63.42
2018-09-13T23:24:19.694Z,64.72
2018-09-13T23:26:51.024Z,63.88
2018-09-13T23:29:19.096Z,64.33
2018-09-13T23:31:48.202Z,64.74
2018-09-13T23:34:17.866Z,63.91
2018-09-13T23:36:45.806Z,64.01
2018-09-13T23:39:14.544Z,63.19
2018-09-13T23:41:43.308Z,63.47
2018-09-13T23:44:11.477Z,63.44
2018-09-13T23:46:41.807Z,63.85
2018-09-13T23:49:10.921Z,63.28
2018-09-13T23:51:38.466Z,63.51
2018-09-13T23:54:07.054Z,64.10
2018-09-13T23:56:37.025Z,63.82
2018-09-13T23:59:09.695Z,63.95
